createdAt,value
2017-09-04T00:00:42.145Z,1016.82
2017-09-04T00:02:03.955Z,1016.76
2017-09-04T00:03:25.474Z,1016.8
2017-09-04T00:04:47.299Z,1016.75
2017-09-04T00:06:09.461Z,1016.83
2017-09-04T00:07:31.514Z,1016.78
2017-09-04T00:08:53.658Z,1016.8
2017-09-04T00:10:15.352Z,1016.76
2017-09-04T00:11:36.582Z,1016.8
2017-09-04T00:12:59.390Z,1016.78
2017-09-04T00:14:20.890Z,1016.79
2017-09-04T00:15:42.713Z,1016.75
2017-09-04T00:17:04.224Z,1016.74
2017-09-04T00:18:26.410Z,1016.7
2017-09-04T00:19:48.543Z,1016.67
2017-09-04T00:21:10.373Z,1016.7
2017-09-04T00:22:32.197Z,1016.73
2017-09-04T00:23:54.395Z,1016.71
2017-09-04T00:25:16.230Z,1016.71
2017-09-04T00:26:38.412Z,1016.68
2017-09-04T00:27:59.894Z,1016.66
2017-09-04T00:29:22.403Z,1016.7
2017-09-04T00:30:44.265Z,1016.65
2017-09-04T00:32:06.083Z,1016.73
2017-09-04T00:33:28.643Z,1016.72
2017-09-04T00:34:50.824Z,1016.71
2017-09-04T00:36:12.654Z,1016.67
2017-09-04T00:37:35.123Z,1016.63
2017-09-04T00:38:57.263Z,1016.66
2017-09-04T00:40:19.714Z,1016.66
2017-09-04T00:41:42.173Z,1016.68
2017-09-04T00:43:04.320Z,1016.67
2017-09-04T00:44:26.843Z,1016.65
2017-09-04T00:45:49.217Z,1016.63
2017-09-04T00:47:11.364Z,1016.63
2017-09-04T00:48:33.863Z,1016.63
2017-09-04T00:49:56.303Z,1016.67
2017-09-04T00:51:18.393Z,1016.65
2017-09-04T00:52:40.672Z,1016.66
2017-09-04T00:54:02.813Z,1016.68
2017-09-04T00:55:24.645Z,1016.68
2017-09-04T00:56:47.182Z,1016.7
2017-09-04T00:58:09.333Z,1016.73
2017-09-04T00:59:31.424Z,1016.7
2017-09-04T01:00:53.252Z,1016.72
2017-09-04T01:02:16.530Z,1016.65
2017-09-04T01:03:38.673Z,1016.72
2017-09-04T01:05:00.176Z,1016.7
2017-09-04T01:06:22.652Z,1016.68
2017-09-04T01:07:45.313Z,1016.69
2017-09-04T01:09:07.145Z,1016.69
2017-09-04T01:10:29.319Z,1016.7
2017-09-04T01:11:51.623Z,1016.67
2017-09-04T01:13:14.095Z,1016.67
2017-09-04T01:14:35.594Z,1016.72
2017-09-04T01:15:57.737Z,1016.66
2017-09-04T01:17:19.882Z,1016.66
2017-09-04T01:18:42.334Z,1016.69
2017-09-04T01:20:04.183Z,1016.7
2017-09-04T01:21:25.779Z,1016.68
2017-09-04T01:22:47.704Z,1016.66
2017-09-04T01:24:10.104Z,1016.62
2017-09-04T01:25:32.563Z,1016.62
2017-09-04T01:26:54.452Z,1016.65
2017-09-04T01:28:16.333Z,1016.62
2017-09-04T01:29:38.231Z,1016.66
2017-09-04T01:31:00.366Z,1016.64
2017-09-04T01:32:21.913Z,1016.64
2017-09-04T01:33:44.082Z,1016.63
2017-09-04T01:35:06.580Z,1016.65
2017-09-04T01:36:28.413Z,1016.71
2017-09-04T01:37:50.554Z,1016.75
2017-09-04T01:39:12.724Z,1016.69
2017-09-04T01:40:34.481Z,1016.75
2017-09-04T01:41:56.685Z,1016.76
2017-09-04T01:43:18.895Z,1016.73
2017-09-04T01:44:40.056Z,1016.72
2017-09-04T01:46:01.916Z,1016.69
2017-09-04T01:47:23.434Z,1016.66
2017-09-04T01:48:45.604Z,1016.68
2017-09-04T01:50:07.130Z,1016.7
2017-09-04T01:51:29.298Z,1016.64
2017-09-04T01:52:51.752Z,1016.65
2017-09-04T01:54:13.875Z,1016.68
2017-09-04T01:55:36.117Z,1016.67
2017-09-04T01:56:58.353Z,1016.6
2017-09-04T01:58:19.524Z,1016.66
2017-09-04T01:59:40.713Z,1016.63
2017-09-04T02:01:02.213Z,1016.63
2017-09-04T02:02:24.084Z,1016.64
2017-09-04T02:03:45.972Z,1016.64
2017-09-04T02:05:07.893Z,1016.62
2017-09-04T02:06:30.131Z,1016.61
2017-09-04T02:07:52.942Z,1016.58
2017-09-04T02:09:15.086Z,1016.56
2017-09-04T02:10:36.925Z,1016.55
2017-09-04T02:11:59.119Z,1016.51
2017-09-04T02:13:21.288Z,1016.55
2017-09-04T02:14:42.947Z,1016.51
2017-09-04T02:16:04.763Z,1016.48
2017-09-04T02:17:27.217Z,1016.5
2017-09-04T02:18:49.387Z,1016.47
2017-09-04T02:20:11.522Z,1016.45
2017-09-04T02:21:33.664Z,1016.43
2017-09-04T02:22:56.125Z,1016.43
2017-09-04T02:24:18.238Z,1016.41
2017-09-04T02:25:40.114Z,1016.45
2017-09-04T02:27:01.952Z,1016.41
2017-09-04T02:28:23.797Z,1016.48
2017-09-04T02:29:45.532Z,1016.46
2017-09-04T02:31:07.353Z,1016.49
2017-09-04T02:32:28.529Z,1016.47
2017-09-04T02:33:50.017Z,1016.49
2017-09-04T02:35:12.463Z,1016.47
2017-09-04T02:36:34.297Z,1016.47
2017-09-04T02:37:55.792Z,1016.46
2017-09-04T02:39:17.943Z,1016.44
2017-09-04T02:40:39.792Z,1016.43
2017-09-04T02:42:01.293Z,1016.45
2017-09-04T02:43:23.628Z,1016.42
2017-09-04T02:44:45.443Z,1016.43
2017-09-04T02:46:07.563Z,1016.42
2017-09-04T02:47:29.805Z,1016.41
2017-09-04T02:48:51.642Z,1016.38
2017-09-04T02:50:13.150Z,1016.37
2017-09-04T02:51:34.676Z,1016.35
2017-09-04T02:52:56.183Z,1016.31
2017-09-04T02:54:18.702Z,1016.39
2017-09-04T02:55:40.202Z,1016.38
2017-09-04T02:57:03.012Z,1016.35
2017-09-04T02:58:24.914Z,1016.36
2017-09-04T02:59:46.751Z,1016.32
2017-09-04T03:01:08.922Z,1016.29
2017-09-04T03:02:31.703Z,1016.32
2017-09-04T03:03:53.858Z,1016.26
2017-09-04T03:05:16.313Z,1016.26
2017-09-04T03:06:38.505Z,1016.25
2017-09-04T03:08:01.031Z,1016.18
2017-09-04T03:09:22.998Z,1016.24
2017-09-04T03:10:45.163Z,1016.18
2017-09-04T03:12:07.326Z,1016.17
2017-09-04T03:13:29.199Z,1016.15
2017-09-04T03:14:51.196Z,1016.12
2017-09-04T03:16:13.334Z,1016.13
2017-09-04T03:17:34.836Z,1016.13
2017-09-04T03:18:56.910Z,1016.1
2017-09-04T03:20:19.073Z,1016.1
2017-09-04T03:21:41.197Z,1016.1
2017-09-04T03:23:03.377Z,1016.11
2017-09-04T03:24:25.562Z,1016.09
2017-09-04T03:25:47.362Z,1016.08
2017-09-04T03:27:08.862Z,1016.08
2017-09-04T03:28:30.997Z,1016.07
2017-09-04T03:29:53.517Z,1016.1
2017-09-04T03:31:15.675Z,1016.11
2017-09-04T03:32:37.593Z,1016.11
2017-09-04T03:33:58.783Z,1016.13
2017-09-04T03:35:21.544Z,1016.14
2017-09-04T03:36:43.021Z,1016.11
2017-09-04T03:38:04.860Z,1016.14
2017-09-04T03:39:26.365Z,1016.13
2017-09-04T03:40:48.874Z,1016.14
2017-09-04T03:42:10.385Z,1016.19
2017-09-04T03:43:32.223Z,1016.23
2017-09-04T03:44:54.357Z,1016.23
2017-09-04T03:46:16.534Z,1016.25
2017-09-04T03:47:39.084Z,1016.31
2017-09-04T03:49:00.572Z,1016.32
2017-09-04T03:50:22.399Z,1016.34
2017-09-04T03:51:43.890Z,1016.37
2017-09-04T03:53:05.716Z,1016.35
2017-09-04T03:54:27.565Z,1016.35
2017-09-04T03:55:49.441Z,1016.35
2017-09-04T03:57:11.717Z,1016.37
2017-09-04T03:58:33.865Z,1016.37
2017-09-04T03:59:55.993Z,1016.41
2017-09-04T04:01:18.133Z,1016.39
2017-09-04T04:02:40.583Z,1016.42
2017-09-04T04:04:02.102Z,1016.44
2017-09-04T04:05:24.676Z,1016.43
2017-09-04T04:06:46.850Z,1016.45
2017-09-04T04:08:09.032Z,1016.45
2017-09-04T04:09:30.854Z,1016.42
2017-09-04T04:10:52.991Z,1016.46
2017-09-04T04:12:15.453Z,1016.43
2017-09-04T04:13:37.585Z,1016.45
2017-09-04T04:14:59.719Z,1016.43
2017-09-04T04:16:21.573Z,1016.44
2017-09-04T04:17:43.064Z,1016.48
2017-09-04T04:19:05.503Z,1016.45
2017-09-04T04:20:27.653Z,1016.45
2017-09-04T04:21:50.281Z,1016.48
2017-09-04T04:23:12.433Z,1016.48
2017-09-04T04:24:34.383Z,1016.47
2017-09-04T04:25:56.097Z,1016.48
2017-09-04T04:27:17.874Z,1016.46
2017-09-04T04:28:40.026Z,1016.47
2017-09-04T04:30:02.527Z,1016.47
2017-09-04T04:31:24.047Z,1016.47
2017-09-04T04:32:45.542Z,1016.45
2017-09-04T04:34:07.684Z,1016.47
2017-09-04T04:35:30.613Z,1016.44
2017-09-04T04:36:52.752Z,1016.45
2017-09-04T04:38:14.890Z,1016.5
2017-09-04T04:39:36.412Z,1016.5
2017-09-04T04:40:58.197Z,1016.54
2017-09-04T04:42:20.773Z,1016.56
2017-09-04T04:43:43.233Z,1016.53
2017-09-04T04:45:04.736Z,1016.55
2017-09-04T04:46:27.246Z,1016.59
2017-09-04T04:47:49.720Z,1016.57
2017-09-04T04:49:11.607Z,1016.53
2017-09-04T04:50:33.763Z,1016.58
2017-09-04T04:51:56.266Z,1016.6
2017-09-04T04:53:18.423Z,1016.58
2017-09-04T04:54:39.933Z,1016.56
2017-09-04T04:56:02.113Z,1016.58
2017-09-04T04:57:24.307Z,1016.57
2017-09-04T04:58:46.449Z,1016.55
2017-09-04T05:00:08.283Z,1016.53
2017-09-04T05:01:30.751Z,1016.51
2017-09-04T05:02:53.253Z,1016.51
2017-09-04T05:04:14.899Z,1016.53
2017-09-04T05:05:36.799Z,1016.49
2017-09-04T05:06:57.983Z,1016.48
2017-09-04T05:08:20.014Z,1016.48
2017-09-04T05:09:42.154Z,1016.48
2017-09-04T05:11:04.353Z,1016.54
2017-09-04T05:12:26.806Z,1016.54
2017-09-04T05:13:49.046Z,1016.52
2017-09-04T05:15:11.522Z,1016.57
2017-09-04T05:16:33.792Z,1016.57
2017-09-04T05:17:55.934Z,1016.6
2017-09-04T05:19:18.444Z,1016.6
2017-09-04T05:20:40.593Z,1016.56
2017-09-04T05:22:02.472Z,1016.57
2017-09-04T05:23:24.048Z,1016.57
2017-09-04T05:24:46.755Z,1016.55
2017-09-04T05:26:08.266Z,1016.6
2017-09-04T05:27:30.732Z,1016.58
2017-09-04T05:28:52.251Z,1016.6
2017-09-04T05:30:14.753Z,1016.62
2017-09-04T05:31:37.331Z,1016.68
2017-09-04T05:32:59.183Z,1016.7
2017-09-04T05:34:21.376Z,1016.67
2017-09-04T05:35:43.604Z,1016.68
2017-09-04T05:37:06.104Z,1016.67
2017-09-04T05:38:28.583Z,1016.66
2017-09-04T05:39:50.084Z,1016.64
2017-09-04T05:41:12.225Z,1016.68
2017-09-04T05:42:34.092Z,1016.67
2017-09-04T05:43:55.961Z,1016.68
2017-09-04T05:45:17.881Z,1016.73
2017-09-04T05:46:40.072Z,1016.76
2017-09-04T05:48:02.560Z,1016.86
2017-09-04T05:49:24.433Z,1016.83
2017-09-04T05:50:46.274Z,1016.86
2017-09-04T05:52:08.402Z,1016.86
2017-09-04T05:53:30.844Z,1016.87
2017-09-04T05:54:52.724Z,1016.85
2017-09-04T05:56:14.664Z,1016.85
2017-09-04T05:57:36.814Z,1016.82
2017-09-04T05:58:59.018Z,1016.85
2017-09-04T06:00:20.893Z,1016.84
2017-09-04T06:01:42.764Z,1016.9
2017-09-04T06:03:05.212Z,1016.87
2017-09-04T06:04:26.416Z,1016.91
2017-09-04T06:05:47.613Z,1016.88
2017-09-04T06:07:09.793Z,1016.94
2017-09-04T06:08:31.926Z,1016.91
2017-09-04T06:09:54.124Z,1016.95
2017-09-04T06:11:16.593Z,1016.97
2017-09-04T06:12:38.423Z,1016.97
2017-09-04T06:14:00.506Z,1016.93
2017-09-04T06:15:22.340Z,1016.94
2017-09-04T06:16:44.626Z,1016.95
2017-09-04T06:18:06.783Z,1016.97
2017-09-04T06:19:29.244Z,1016.95
2017-09-04T06:20:51.084Z,1016.94
2017-09-04T06:22:13.613Z,1016.96
2017-09-04T06:23:35.934Z,1016.96
2017-09-04T06:24:58.691Z,1016.98
2017-09-04T06:26:20.867Z,1017.04
2017-09-04T06:27:43.021Z,1017.04
2017-09-04T06:29:04.849Z,1017.02
2017-09-04T06:30:27.044Z,1016.99
2017-09-04T06:31:48.694Z,1017.05
2017-09-04T06:33:11.178Z,1017.06
2017-09-04T06:34:32.383Z,1017.02
2017-09-04T06:35:54.488Z,1017.09
2017-09-04T06:37:16.013Z,1017.08
2017-09-04T06:38:38.186Z,1017.1
2017-09-04T06:40:00.345Z,1017.11
2017-09-04T06:41:22.805Z,1017.14
2017-09-04T06:42:44.627Z,1017.15
2017-09-04T06:44:05.813Z,1017.16
2017-09-04T06:45:27.672Z,1017.14
2017-09-04T06:46:49.683Z,1017.14
2017-09-04T06:48:11.616Z,1017.13
2017-09-04T06:49:33.293Z,1017.18
2017-09-04T06:50:55.451Z,1017.18
2017-09-04T06:52:18.015Z,1017.16
2017-09-04T06:53:40.186Z,1017.17
2017-09-04T06:55:01.752Z,1017.18
2017-09-04T06:56:23.879Z,1017.24
2017-09-04T06:57:46.415Z,1017.21
2017-09-04T06:59:08.616Z,1017.25
2017-09-04T07:00:30.760Z,1017.23
2017-09-04T07:01:52.599Z,1017.24
2017-09-04T07:03:15.013Z,1017.24
2017-09-04T07:04:37.532Z,1017.27
2017-09-04T07:05:59.381Z,1017.32
2017-09-04T07:07:21.046Z,1017.34
2017-09-04T07:08:43.552Z,1017.38
2017-09-04T07:10:05.698Z,1017.38
2017-09-04T07:11:28.185Z,1017.39
2017-09-04T07:12:49.960Z,1017.31
2017-09-04T07:14:12.503Z,1017.34
2017-09-04T07:15:34.683Z,1017.33
2017-09-04T07:16:56.852Z,1017.34
2017-09-04T07:18:18.478Z,1017.37
2017-09-04T07:19:40.958Z,1017.4
2017-09-04T07:21:04.062Z,1017.38
2017-09-04T07:22:25.685Z,1017.44
2017-09-04T07:23:47.756Z,1017.43
2017-09-04T07:25:10.732Z,1017.41
2017-09-04T07:26:33.232Z,1017.4
2017-09-04T07:27:54.760Z,1017.43
2017-09-04T07:29:16.276Z,1017.43
2017-09-04T07:30:38.212Z,1017.44
2017-09-04T07:31:59.425Z,1017.45
2017-09-04T07:33:22.370Z,1017.44
2017-09-04T07:34:44.582Z,1017.47
2017-09-04T07:36:06.752Z,1017.5
2017-09-04T07:37:28.366Z,1017.5
2017-09-04T07:38:50.257Z,1017.53
2017-09-04T07:40:12.514Z,1017.51
2017-09-04T07:41:34.704Z,1017.48
2017-09-04T07:42:56.874Z,1017.46
2017-09-04T07:44:19.035Z,1017.41
2017-09-04T07:45:40.542Z,1017.43
2017-09-04T07:47:02.787Z,1017.39
2017-09-04T07:48:24.655Z,1017.32
2017-09-04T07:49:46.846Z,1017.32
2017-09-04T07:51:09.082Z,1017.32
2017-09-04T07:52:31.811Z,1017.33
2017-09-04T07:53:54.297Z,1017.3
2017-09-04T07:55:16.567Z,1017.33
2017-09-04T07:56:38.402Z,1017.34
2017-09-04T07:58:00.882Z,1017.3
2017-09-04T07:59:23.112Z,1017.36
2017-09-04T08:00:44.937Z,1017.41
2017-09-04T08:02:06.462Z,1017.4
2017-09-04T08:03:29.024Z,1017.38
2017-09-04T08:04:50.201Z,1017.42
2017-09-04T08:06:12.188Z,1017.46
2017-09-04T08:07:34.468Z,1017.44
2017-09-04T08:08:56.241Z,1017.45
2017-09-04T08:10:18.861Z,1017.43
2017-09-04T08:11:40.834Z,1017.37
2017-09-04T08:13:02.673Z,1017.42
2017-09-04T08:14:24.823Z,1017.48
2017-09-04T08:15:46.411Z,1017.46
2017-09-04T08:17:08.582Z,1017.47
2017-09-04T08:18:30.411Z,1017.48
2017-09-04T08:19:52.278Z,1017.46
2017-09-04T08:21:14.524Z,1017.47
2017-09-04T08:22:36.053Z,1017.49
2017-09-04T08:23:58.533Z,1017.49
2017-09-04T08:25:20.296Z,1017.47
2017-09-04T08:26:42.142Z,1017.48
2017-09-04T08:28:04.301Z,1017.49
2017-09-04T08:29:26.123Z,1017.52
2017-09-04T08:30:48.262Z,1017.43
2017-09-04T08:32:09.766Z,1017.49
2017-09-04T08:33:31.283Z,1017.47
2017-09-04T08:34:53.187Z,1017.49
2017-09-04T08:36:15.760Z,1017.48
2017-09-04T08:37:38.236Z,1017.48
2017-09-04T08:39:00.918Z,1017.49
2017-09-04T08:40:22.921Z,1017.49
2017-09-04T08:41:44.720Z,1017.5
2017-09-04T08:43:06.960Z,1017.51
2017-09-04T08:44:28.799Z,1017.53
2017-09-04T08:45:50.614Z,1017.56
2017-09-04T08:47:12.441Z,1017.56
2017-09-04T08:48:33.952Z,1017.61
2017-09-04T08:49:55.852Z,1017.63
2017-09-04T08:51:18.000Z,1017.62
2017-09-04T08:52:40.202Z,1017.64
2017-09-04T08:54:01.392Z,1017.62
2017-09-04T08:55:23.572Z,1017.66
2017-09-04T08:56:44.768Z,1017.67
2017-09-04T08:58:06.930Z,1017.65
2017-09-04T08:59:29.426Z,1017.63
2017-09-04T09:00:50.633Z,1017.69
2017-09-04T09:02:12.783Z,1017.7
2017-09-04T09:03:34.904Z,1017.73
2017-09-04T09:04:57.072Z,1017.72
2017-09-04T09:06:18.933Z,1017.75
2017-09-04T09:07:41.513Z,1017.75
2017-09-04T09:09:03.908Z,1017.72
2017-09-04T09:10:25.825Z,1017.69
2017-09-04T09:11:48.313Z,1017.76
2017-09-04T09:13:10.895Z,1017.73
2017-09-04T09:14:34.223Z,1017.77
2017-09-04T09:15:56.566Z,1017.79
2017-09-04T09:17:18.722Z,1017.8
2017-09-04T09:18:40.312Z,1017.8
2017-09-04T09:20:02.514Z,1017.81
2017-09-04T09:21:24.353Z,1017.83
2017-09-04T09:22:46.497Z,1017.81
2017-09-04T09:24:08.503Z,1017.82
2017-09-04T09:25:31.023Z,1017.83
2017-09-04T09:26:53.180Z,1017.82
2017-09-04T09:28:15.003Z,1017.88
2017-09-04T09:29:37.516Z,1017.9
2017-09-04T09:31:00.103Z,1017.93
2017-09-04T09:32:22.606Z,1017.93
2017-09-04T09:33:44.446Z,1017.88
2017-09-04T09:35:06.318Z,1017.89
2017-09-04T09:36:28.475Z,1017.89
2017-09-04T09:37:50.628Z,1017.96
2017-09-04T09:39:12.932Z,1017.92
2017-09-04T09:40:35.160Z,1017.97
2017-09-04T09:41:57.113Z,1017.94
2017-09-04T09:43:19.291Z,1017.96
2017-09-04T09:44:41.121Z,1017.95
2017-09-04T09:46:03.303Z,1017.93
2017-09-04T09:47:25.772Z,1017.96
2017-09-04T09:48:47.623Z,1017.97
2017-09-04T09:50:09.458Z,1017.95
2017-09-04T09:51:31.285Z,1017.91
2017-09-04T09:52:53.055Z,1017.91
2017-09-04T09:54:14.560Z,1017.9
2017-09-04T09:55:36.381Z,1017.89
2017-09-04T09:56:57.953Z,1017.9
2017-09-04T09:58:20.414Z,1017.92
2017-09-04T09:59:42.636Z,1017.94
2017-09-04T10:01:04.470Z,1017.89
2017-09-04T10:02:25.973Z,1017.95
2017-09-04T10:03:48.904Z,1017.92
2017-09-04T10:05:11.151Z,1017.95
2017-09-04T10:06:33.193Z,1017.95
2017-09-04T10:07:55.385Z,1017.95
2017-09-04T10:09:17.896Z,1017.94
2017-09-04T10:10:39.760Z,1017.96
2017-09-04T10:12:01.923Z,1017.95
2017-09-04T10:13:23.876Z,1017.97
2017-09-04T10:14:45.654Z,1017.95
2017-09-04T10:16:07.824Z,1017.94
2017-09-04T10:17:29.362Z,1017.97
2017-09-04T10:18:51.520Z,1017.97
2017-09-04T10:20:13.307Z,1017.98
2017-09-04T10:21:35.483Z,1017.98
2017-09-04T10:22:58.026Z,1017.94
2017-09-04T10:24:20.182Z,1017.98
2017-09-04T10:25:42.156Z,1017.94
2017-09-04T10:27:04.416Z,1017.92
2017-09-04T10:28:26.603Z,1017.95
2017-09-04T10:29:48.436Z,1018.01
2017-09-04T10:31:11.384Z,1017.96
2017-09-04T10:32:33.550Z,1017.95
2017-09-04T10:33:55.723Z,1017.98
2017-09-04T10:35:17.563Z,1018
2017-09-04T10:36:39.433Z,1017.98
2017-09-04T10:38:01.523Z,1017.99
2017-09-04T10:39:23.364Z,1017.99
2017-09-04T10:40:45.565Z,1018.02
2017-09-04T10:42:08.344Z,1018.01
2017-09-04T10:43:30.194Z,1018.07
2017-09-04T10:44:52.331Z,1018.04
2017-09-04T10:46:14.813Z,1018.06
2017-09-04T10:47:36.267Z,1018.07
2017-09-04T10:48:58.100Z,1018.05
2017-09-04T10:50:19.304Z,1018.06
2017-09-04T10:51:41.780Z,1018.01
2017-09-04T10:53:03.843Z,1017.97
2017-09-04T10:54:25.382Z,1017.96
2017-09-04T10:55:47.878Z,1017.92
2017-09-04T10:57:09.444Z,1017.93
2017-09-04T10:58:31.843Z,1017.94
2017-09-04T10:59:54.142Z,1017.93
2017-09-04T11:01:16.632Z,1017.95
2017-09-04T11:02:38.476Z,1017.92
2017-09-04T11:04:00.353Z,1017.94
2017-09-04T11:05:22.524Z,1017.94
2017-09-04T11:06:44.696Z,1017.95
2017-09-04T11:08:07.204Z,1017.92
2017-09-04T11:09:29.565Z,1017.9
2017-09-04T11:10:51.709Z,1017.85
2017-09-04T11:12:13.876Z,1017.88
2017-09-04T11:13:36.153Z,1017.91
2017-09-04T11:14:58.643Z,1017.88
2017-09-04T11:16:20.164Z,1017.94
2017-09-04T11:17:42.020Z,1017.91
2017-09-04T11:19:03.553Z,1017.92
2017-09-04T11:20:25.994Z,1017.91
2017-09-04T11:21:47.928Z,1017.92
2017-09-04T11:23:10.076Z,1017.9
2017-09-04T11:24:31.270Z,1017.93
2017-09-04T11:25:53.793Z,1017.92
2017-09-04T11:27:15.968Z,1017.93
2017-09-04T11:28:38.134Z,1017.89
2017-09-04T11:30:00.175Z,1017.85
2017-09-04T11:31:22.563Z,1017.89
2017-09-04T11:32:44.796Z,1017.87
2017-09-04T11:34:06.621Z,1017.89
2017-09-04T11:35:28.819Z,1017.92
2017-09-04T11:36:51.546Z,1017.89
2017-09-04T11:38:13.723Z,1017.86
2017-09-04T11:39:35.710Z,1017.84
2017-09-04T11:40:57.855Z,1017.85
2017-09-04T11:42:20.680Z,1017.86
2017-09-04T11:43:42.532Z,1017.88
2017-09-04T11:45:04.700Z,1017.88
2017-09-04T11:46:26.618Z,1017.95
2017-09-04T11:47:49.462Z,1017.91
2017-09-04T11:49:11.324Z,1017.89
2017-09-04T11:50:33.921Z,1017.89
2017-09-04T11:51:56.072Z,1017.94
2017-09-04T11:53:18.984Z,1017.93
2017-09-04T11:54:40.818Z,1017.94
2017-09-04T11:56:02.689Z,1017.88
2017-09-04T11:57:25.160Z,1017.94
2017-09-04T11:58:48.058Z,1017.89
2017-09-04T12:00:10.539Z,1017.88
2017-09-04T12:01:32.420Z,1017.9
2017-09-04T12:02:54.302Z,1017.83
2017-09-04T12:04:16.825Z,1017.87
2017-09-04T12:05:39.014Z,1017.87
2017-09-04T12:07:00.869Z,1017.85
2017-09-04T12:08:23.040Z,1017.76
2017-09-04T12:09:45.552Z,1017.78
2017-09-04T12:11:07.774Z,1017.78
2017-09-04T12:12:30.265Z,1017.81
2017-09-04T12:13:52.135Z,1017.77
2017-09-04T12:15:14.650Z,1017.78
2017-09-04T12:16:36.818Z,1017.79
2017-09-04T12:17:59.054Z,1017.82
2017-09-04T12:19:21.217Z,1017.83
2017-09-04T12:20:44.075Z,1017.79
2017-09-04T12:22:06.569Z,1017.75
2017-09-04T12:23:28.815Z,1017.79
2017-09-04T12:24:50.981Z,1017.79
2017-09-04T12:26:13.467Z,1017.85
2017-09-04T12:27:35.293Z,1017.82
2017-09-04T12:28:57.137Z,1017.77
2017-09-04T12:30:19.369Z,1017.82
2017-09-04T12:31:42.074Z,1017.81
2017-09-04T12:33:04.607Z,1017.81
2017-09-04T12:34:26.781Z,1017.8
2017-09-04T12:35:48.947Z,1017.81
2017-09-04T12:37:11.444Z,1017.79
2017-09-04T12:38:33.291Z,1017.79
2017-09-04T12:39:54.805Z,1017.77
2017-09-04T12:41:16.992Z,1017.75
2017-09-04T12:42:39.518Z,1017.76
2017-09-04T12:44:01.411Z,1017.73
2017-09-04T12:45:23.256Z,1017.74
2017-09-04T12:46:45.413Z,1017.67
2017-09-04T12:48:08.009Z,1017.72
2017-09-04T12:49:30.165Z,1017.72
2017-09-04T12:50:52.370Z,1017.68
2017-09-04T12:52:14.544Z,1017.69
2017-09-04T12:53:37.049Z,1017.69
2017-09-04T12:54:58.905Z,1017.74
2017-09-04T12:56:21.165Z,1017.74
2017-09-04T12:57:43.001Z,1017.74
2017-09-04T12:59:05.833Z,1017.75
2017-09-04T13:00:28.312Z,1017.67
2017-09-04T13:01:50.188Z,1017.67
2017-09-04T13:03:12.357Z,1017.69
2017-09-04T13:04:34.426Z,1017.67
2017-09-04T13:05:56.926Z,1017.65
2017-09-04T13:07:19.511Z,1017.69
2017-09-04T13:08:41.351Z,1017.7
2017-09-04T13:10:03.432Z,1017.71
2017-09-04T13:11:25.912Z,1017.7
2017-09-04T13:12:47.751Z,1017.66
2017-09-04T13:14:10.243Z,1017.67
2017-09-04T13:15:33.073Z,1017.64
2017-09-04T13:16:55.253Z,1017.63
2017-09-04T13:18:17.743Z,1017.63
2017-09-04T13:19:39.963Z,1017.6
2017-09-04T13:21:02.035Z,1017.65
2017-09-04T13:22:24.603Z,1017.68
2017-09-04T13:23:46.739Z,1017.71
2017-09-04T13:25:08.274Z,1017.71
2017-09-04T13:26:30.443Z,1017.72
2017-09-04T13:27:52.265Z,1017.75
2017-09-04T13:29:14.464Z,1017.72
2017-09-04T13:30:36.963Z,1017.78
2017-09-04T13:31:59.462Z,1017.74
2017-09-04T13:33:21.629Z,1017.72
2017-09-04T13:34:44.111Z,1017.71
2017-09-04T13:36:06.007Z,1017.73
2017-09-04T13:37:28.503Z,1017.69
2017-09-04T13:38:50.685Z,1017.67
2017-09-04T13:40:12.863Z,1017.71
2017-09-04T13:41:34.055Z,1017.72
2017-09-04T13:42:56.884Z,1017.75
2017-09-04T13:44:19.367Z,1017.79
2017-09-04T13:45:41.213Z,1017.78
2017-09-04T13:47:03.198Z,1017.77
2017-09-04T13:48:25.292Z,1017.79
2017-09-04T13:49:47.139Z,1017.79
2017-09-04T13:51:08.654Z,1017.78
2017-09-04T13:52:30.163Z,1017.75
2017-09-04T13:53:52.925Z,1017.73
2017-09-04T13:55:15.115Z,1017.75
2017-09-04T13:56:37.314Z,1017.74
2017-09-04T13:57:59.139Z,1017.7
2017-09-04T13:59:21.826Z,1017.73
2017-09-04T14:00:44.013Z,1017.71
2017-09-04T14:02:05.881Z,1017.66
2017-09-04T14:03:28.378Z,1017.59
2017-09-04T14:04:50.167Z,1017.62
2017-09-04T14:06:12.660Z,1017.55
2017-09-04T14:07:35.144Z,1017.53
2017-09-04T14:08:56.984Z,1017.54
2017-09-04T14:10:19.801Z,1017.5
2017-09-04T14:11:42.051Z,1017.54
2017-09-04T14:13:03.666Z,1017.53
2017-09-04T14:14:25.933Z,1017.56
2017-09-04T14:15:48.442Z,1017.56
2017-09-04T14:17:10.940Z,1017.53
2017-09-04T14:18:32.804Z,1017.57
2017-09-04T14:19:55.325Z,1017.56
2017-09-04T14:21:17.425Z,1017.61
2017-09-04T14:22:39.583Z,1017.63
2017-09-04T14:24:01.764Z,1017.63
2017-09-04T14:25:24.343Z,1017.63
2017-09-04T14:26:46.474Z,1017.62
2017-09-04T14:28:08.324Z,1017.62
2017-09-04T14:29:30.483Z,1017.63
2017-09-04T14:30:52.996Z,1017.6
2017-09-04T14:32:15.427Z,1017.61
2017-09-04T14:33:36.953Z,1017.61
2017-09-04T14:34:59.137Z,1017.6
2017-09-04T14:36:21.163Z,1017.56
2017-09-04T14:37:44.033Z,1017.59
2017-09-04T14:39:06.523Z,1017.57
2017-09-04T14:40:28.040Z,1017.62
2017-09-04T14:41:50.516Z,1017.59
2017-09-04T14:43:13.037Z,1017.6
2017-09-04T14:44:35.034Z,1017.61
2017-09-04T14:45:57.556Z,1017.6
2017-09-04T14:47:19.843Z,1017.65
2017-09-04T14:48:42.821Z,1017.65
2017-09-04T14:50:05.035Z,1017.7
2017-09-04T14:51:27.294Z,1017.66
2017-09-04T14:52:49.846Z,1017.63
2017-09-04T14:54:12.680Z,1017.64
2017-09-04T14:55:34.843Z,1017.62
2017-09-04T14:56:57.100Z,1017.6
2017-09-04T14:58:19.623Z,1017.64
2017-09-04T14:59:42.426Z,1017.61
2017-09-04T15:01:06.863Z,1017.64
2017-09-04T15:02:29.490Z,1017.69
2017-09-04T15:03:51.973Z,1017.63
2017-09-04T15:05:14.620Z,1017.61
2017-09-04T15:06:36.476Z,1017.56
2017-09-04T15:07:59.001Z,1017.57
2017-09-04T15:09:20.888Z,1017.54
2017-09-04T15:10:43.432Z,1017.56
2017-09-04T15:12:05.599Z,1017.59
2017-09-04T15:13:28.084Z,1017.6
2017-09-04T15:14:50.264Z,1017.64
2017-09-04T15:16:12.036Z,1017.64
2017-09-04T15:17:34.222Z,1017.68
2017-09-04T15:18:56.531Z,1017.69
2017-09-04T15:20:18.406Z,1017.71
2017-09-04T15:21:40.781Z,1017.71
2017-09-04T15:23:02.971Z,1017.74
2017-09-04T15:24:24.813Z,1017.73
2017-09-04T15:25:47.318Z,1017.76
2017-09-04T15:27:09.503Z,1017.76
2017-09-04T15:28:31.832Z,1017.79
2017-09-04T15:29:54.009Z,1017.78
2017-09-04T15:31:16.504Z,1017.75
2017-09-04T15:32:38.552Z,1017.8
2017-09-04T15:34:01.042Z,1017.78
2017-09-04T15:35:23.541Z,1017.8
2017-09-04T15:36:45.756Z,1017.82
2017-09-04T15:38:08.615Z,1017.84
2017-09-04T15:39:31.116Z,1017.8
2017-09-04T15:40:53.302Z,1017.84
2017-09-04T15:42:15.183Z,1017.84
2017-09-04T15:43:37.335Z,1017.87
2017-09-04T15:44:59.552Z,1017.9
2017-09-04T15:46:21.721Z,1017.9
2017-09-04T15:47:43.873Z,1017.91
2017-09-04T15:49:06.683Z,1017.92
2017-09-04T15:50:28.546Z,1017.95
2017-09-04T15:51:51.119Z,1017.89
2017-09-04T15:53:13.607Z,1017.94
2017-09-04T15:54:35.824Z,1017.89
2017-09-04T15:55:58.121Z,1017.9
2017-09-04T15:57:20.662Z,1017.88
2017-09-04T15:58:43.205Z,1017.93
2017-09-04T16:00:05.946Z,1017.92
2017-09-04T16:01:27.812Z,1017.94
2017-09-04T16:02:50.409Z,1017.97
2017-09-04T16:04:12.907Z,1017.98
2017-09-04T16:05:35.499Z,1017.95
2017-09-04T16:06:58.001Z,1017.97
2017-09-04T16:08:20.162Z,1017.97
2017-09-04T16:09:42.692Z,1017.95
2017-09-04T16:11:05.542Z,1017.95
2017-09-04T16:12:27.413Z,1017.96
2017-09-04T16:13:49.937Z,1017.91
2017-09-04T16:15:12.475Z,1017.87
2017-09-04T16:16:35.237Z,1017.88
2017-09-04T16:17:57.106Z,1017.85
2017-09-04T16:19:19.634Z,1017.94
2017-09-04T16:20:41.792Z,1017.91
2017-09-04T16:22:03.967Z,1017.92
2017-09-04T16:23:26.456Z,1017.89
2017-09-04T16:24:48.375Z,1017.92
2017-09-04T16:26:10.862Z,1017.95
2017-09-04T16:27:33.461Z,1017.89
2017-09-04T16:28:55.953Z,1017.94
2017-09-04T16:30:17.513Z,1017.91
2017-09-04T16:31:39.786Z,1017.89
2017-09-04T16:33:02.325Z,1017.94
2017-09-04T16:34:24.825Z,1017.92
2017-09-04T16:35:47.034Z,1017.92